sensor_id;sensor_type;location;lat;lon;timestamp;pressure;altitude;pressure_sealevel;temperature
70831;BMP180;58451;51.550;7.208;2023-11-19T00:00:33;100109.40;;;10.10
70831;BMP180;58451;51.550;7.208;2023-11-19T00:02:04;100121.80;;;10.16
70831;BMP180;58451;51.550;7.208;2023-11-19T00:03:36;100139.00;;;10.20
70831;BMP180;58451;51.550;7.208;2023-11-19T00:05:10;100151.00;;;10.20
70831;BMP180;58451;51.550;7.208;2023-11-19T00:06:44;100151.80;;;10.28
70831;BMP180;58451;51.550;7.208;2023-11-19T00:08:16;100147.20;;;10.30
70831;BMP180;58451;51.550;7.208;2023-11-19T00:09:48;100143.80;;;10.30
70831;BMP180;58451;51.550;7.208;2023-11-19T00:11:20;100155.80;;;10.38
70831;BMP180;58451;51.550;7.208;2023-11-19T00:12:51;100158.80;;;10.40
70831;BMP180;58451;51.550;7.208;2023-11-19T00:14:24;100157.00;;;10.40
70831;BMP180;58451;51.550;7.208;2023-11-19T00:15:57;100153.80;;;10.40
70831;BMP180;58451;51.550;7.208;2023-11-19T00:17:29;100147.60;;;10.46
70831;BMP180;58451;51.550;7.208;2023-11-19T00:19:00;100148.60;;;10.50
70831;BMP180;58451;51.550;7.208;2023-11-19T00:20:32;100155.00;;;10.50
70831;BMP180;58451;51.550;7.208;2023-11-19T00:22:04;100143.00;;;10.50
70831;BMP180;58451;51.550;7.208;2023-11-19T00:23:37;100138.00;;;10.50
70831;BMP180;58451;51.550;7.208;2023-11-19T00:25:09;100141.80;;;10.52
70831;BMP180;58451;51.550;7.208;2023-11-19T00:26:42;100144.40;;;10.58
70831;BMP180;58451;51.550;7.208;2023-11-19T00:28:14;100141.80;;;10.60
70831;BMP180;58451;51.550;7.208;2023-11-19T00:29:46;100143.00;;;10.60
70831;BMP180;58451;51.550;7.208;2023-11-19T00:31:18;100138.80;;;10.60
70831;BMP180;58451;51.550;7.208;2023-11-19T00:32:50;100143.60;;;10.60
70831;BMP180;58451;51.550;7.208;2023-11-19T00:34:22;100147.40;;;10.60
70831;BMP180;58451;51.550;7.208;2023-11-19T00:35:54;100147.00;;;10.70
70831;BMP180;58451;51.550;7.208;2023-11-19T00:37:27;100143.40;;;10.70
70831;BMP180;58451;51.550;7.208;2023-11-19T00:38:59;100141.60;;;10.70
70831;BMP180;58451;51.550;7.208;2023-11-19T00:40:31;100132.60;;;10.70
70831;BMP180;58451;51.550;7.208;2023-11-19T00:42:03;100127.00;;;10.70
70831;BMP180;58451;51.550;7.208;2023-11-19T00:43:36;100119.60;;;10.70
70831;BMP180;58451;51.550;7.208;2023-11-19T00:45:08;100123.80;;;10.72
70831;BMP180;58451;51.550;7.208;2023-11-19T00:46:42;100125.20;;;10.80
70831;BMP180;58451;51.550;7.208;2023-11-19T00:48:14;100120.20;;;10.80
70831;BMP180;58451;51.550;7.208;2023-11-19T00:49:50;100115.20;;;10.80
70831;BMP180;58451;51.550;7.208;2023-11-19T00:51:22;100119.40;;;10.80
70831;BMP180;58451;51.550;7.208;2023-11-19T00:52:53;100114.60;;;10.84
70831;BMP180;58451;51.550;7.208;2023-11-19T00:54:26;100114.40;;;10.90
70831;BMP180;58451;51.550;7.208;2023-11-19T00:55:58;100113.60;;;10.90
70831;BMP180;58451;51.550;7.208;2023-11-19T00:57:31;100115.00;;;10.90
70831;BMP180;58451;51.550;7.208;2023-11-19T00:59:04;100117.60;;;10.96
70831;BMP180;58451;51.550;7.208;2023-11-19T01:00:36;100112.40;;;11.00
70831;BMP180;58451;51.550;7.208;2023-11-19T01:02:08;100110.40;;;11.00
70831;BMP180;58451;51.550;7.208;2023-11-19T01:03:40;100107.60;;;11.00
70831;BMP180;58451;51.550;7.208;2023-11-19T01:05:12;100099.40;;;11.00
70831;BMP180;58451;51.550;7.208;2023-11-19T01:06:46;100098.60;;;11.00
70831;BMP180;58451;51.550;7.208;2023-11-19T01:08:20;100098.60;;;11.08
70831;BMP180;58451;51.550;7.208;2023-11-19T01:09:52;100094.20;;;11.08
70831;BMP180;58451;51.550;7.208;2023-11-19T01:11:25;100091.40;;;11.10
70831;BMP180;58451;51.550;7.208;2023-11-19T01:12:57;100097.00;;;11.10
70831;BMP180;58451;51.550;7.208;2023-11-19T01:14:30;100098.40;;;11.10
70831;BMP180;58451;51.550;7.208;2023-11-19T01:16:02;100099.00;;;11.10
70831;BMP180;58451;51.550;7.208;2023-11-19T01:17:36;100104.80;;;11.10
70831;BMP180;58451;51.550;7.208;2023-11-19T01:19:09;100105.00;;;11.14
70831;BMP180;58451;51.550;7.208;2023-11-19T01:20:48;100107.40;;;11.14
70831;BMP180;58451;51.550;7.208;2023-11-19T01:22:20;100107.40;;;11.18
70831;BMP180;58451;51.550;7.208;2023-11-19T01:23:52;100108.80;;;11.20
70831;BMP180;58451;51.550;7.208;2023-11-19T01:25:25;100107.80;;;11.20
70831;BMP180;58451;51.550;7.208;2023-11-19T01:26:57;100112.60;;;11.20
70831;BMP180;58451;51.550;7.208;2023-11-19T01:28:29;100114.80;;;11.20
70831;BMP180;58451;51.550;7.208;2023-11-19T01:30:03;100117.80;;;11.20
70831;BMP180;58451;51.550;7.208;2023-11-19T01:31:35;100111.40;;;11.20
70831;BMP180;58451;51.550;7.208;2023-11-19T01:33:07;100113.60;;;11.20
70831;BMP180;58451;51.550;7.208;2023-11-19T01:34:40;100113.80;;;11.20
70831;BMP180;58451;51.550;7.208;2023-11-19T01:36:13;100106.80;;;11.20
70831;BMP180;58451;51.550;7.208;2023-11-19T01:37:46;100098.40;;;11.20
70831;BMP180;58451;51.550;7.208;2023-11-19T01:39:17;100093.80;;;11.26
70831;BMP180;58451;51.550;7.208;2023-11-19T01:40:56;100097.80;;;11.24
70831;BMP180;58451;51.550;7.208;2023-11-19T01:42:28;100097.00;;;11.30
70831;BMP180;58451;51.550;7.208;2023-11-19T01:44:00;100095.60;;;11.30
70831;BMP180;58451;51.550;7.208;2023-11-19T01:45:33;100107.00;;;11.30
70831;BMP180;58451;51.550;7.208;2023-11-19T01:47:06;100101.60;;;11.30
70831;BMP180;58451;51.550;7.208;2023-11-19T01:48:43;100099.60;;;11.36
70831;BMP180;58451;51.550;7.208;2023-11-19T01:50:16;100092.40;;;11.40
70831;BMP180;58451;51.550;7.208;2023-11-19T01:51:48;100095.40;;;11.40
70831;BMP180;58451;51.550;7.208;2023-11-19T01:53:21;100088.60;;;11.40
70831;BMP180;58451;51.550;7.208;2023-11-19T01:54:54;100080.60;;;11.40
70831;BMP180;58451;51.550;7.208;2023-11-19T01:56:27;100082.60;;;11.40
70831;BMP180;58451;51.550;7.208;2023-11-19T01:58:01;100081.40;;;11.40
70831;BMP180;58451;51.550;7.208;2023-11-19T01:59:34;100076.40;;;11.40
70831;BMP180;58451;51.550;7.208;2023-11-19T02:01:06;100073.20;;;11.48
70831;BMP180;58451;51.550;7.208;2023-11-19T02:02:40;100076.80;;;11.46
70831;BMP180;58451;51.550;7.208;2023-11-19T02:04:13;100075.20;;;11.50
70831;BMP180;58451;51.550;7.208;2023-11-19T02:05:48;100066.60;;;11.50
70831;BMP180;58451;51.550;7.208;2023-11-19T02:07:24;100059.20;;;11.50
70831;BMP180;58451;51.550;7.208;2023-11-19T02:08:57;100055.20;;;11.60
70831;BMP180;58451;51.550;7.208;2023-11-19T02:10:29;100061.40;;;11.60
70831;BMP180;58451;51.550;7.208;2023-11-19T02:12:01;100060.20;;;11.60
70831;BMP180;58451;51.550;7.208;2023-11-19T02:13:33;100057.20;;;11.62
70831;BMP180;58451;51.550;7.208;2023-11-19T02:15:08;100057.60;;;11.70
70831;BMP180;58451;51.550;7.208;2023-11-19T02:16:40;100064.00;;;11.70
70831;BMP180;58451;51.550;7.208;2023-11-19T02:19:54;100045.40;;;11.70
70831;BMP180;58451;51.550;7.208;2023-11-19T02:21:26;100044.40;;;11.74
70831;BMP180;58451;51.550;7.208;2023-11-19T02:22:58;100041.40;;;11.80
70831;BMP180;58451;51.550;7.208;2023-11-19T02:24:31;100039.00;;;11.80
70831;BMP180;58451;51.550;7.208;2023-11-19T02:26:33;100034.60;;;11.80
70831;BMP180;58451;51.550;7.208;2023-11-19T02:28:08;100040.40;;;11.80
70831;BMP180;58451;51.550;7.208;2023-11-19T02:29:43;100044.20;;;11.80
70831;BMP180;58451;51.550;7.208;2023-11-19T02:31:15;100048.60;;;11.84
70831;BMP180;58451;51.550;7.208;2023-11-19T02:32:47;100045.20;;;11.90
70831;BMP180;58451;51.550;7.208;2023-11-19T02:34:20;100044.00;;;11.90
70831;BMP180;58451;51.550;7.208;2023-11-19T02:35:53;100044.80;;;11.90
70831;BMP180;58451;51.550;7.208;2023-11-19T02:37:26;100048.40;;;11.90
70831;BMP180;58451;51.550;7.208;2023-11-19T02:38:58;100041.40;;;11.90
70831;BMP180;58451;51.550;7.208;2023-11-19T02:40:30;100035.80;;;11.90
70831;BMP180;58451;51.550;7.208;2023-11-19T02:42:01;100021.40;;;11.90
70831;BMP180;58451;51.550;7.208;2023-11-19T02:43:38;100020.40;;;11.90
70831;BMP180;58451;51.550;7.208;2023-11-19T02:45:10;100023.00;;;11.90
70831;BMP180;58451;51.550;7.208;2023-11-19T02:46:46;100026.40;;;11.90
70831;BMP180;58451;51.550;7.208;2023-11-19T02:48:20;100025.80;;;11.94
70831;BMP180;58451;51.550;7.208;2023-11-19T02:49:52;100024.20;;;11.98
70831;BMP180;58451;51.550;7.208;2023-11-19T02:51:25;100032.40;;;11.98
70831;BMP180;58451;51.550;7.208;2023-11-19T02:52:56;100029.40;;;12.00
70831;BMP180;58451;51.550;7.208;2023-11-19T02:54:28;100030.00;;;12.00
70831;BMP180;58451;51.550;7.208;2023-11-19T02:56:02;100028.00;;;12.00
70831;BMP180;58451;51.550;7.208;2023-11-19T02:57:41;100022.40;;;12.00
70831;BMP180;58451;51.550;7.208;2023-11-19T02:59:21;100024.00;;;12.00
70831;BMP180;58451;51.550;7.208;2023-11-19T03:00:59;100015.80;;;12.00
70831;BMP180;58451;51.550;7.208;2023-11-19T03:02:41;100016.40;;;12.00
70831;BMP180;58451;51.550;7.208;2023-11-19T03:04:18;100018.60;;;12.00
70831;BMP180;58451;51.550;7.208;2023-11-19T03:05:51;100020.00;;;12.00
70831;BMP180;58451;51.550;7.208;2023-11-19T03:07:23;100013.60;;;12.00
70831;BMP180;58451;51.550;7.208;2023-11-19T03:08:55;100018.80;;;12.04
70831;BMP180;58451;51.550;7.208;2023-11-19T03:10:28;100011.20;;;12.08
70831;BMP180;58451;51.550;7.208;2023-11-19T03:12:02;100012.20;;;12.10
70831;BMP180;58451;51.550;7.208;2023-11-19T03:13:33;100014.60;;;12.10
70831;BMP180;58451;51.550;7.208;2023-11-19T03:15:07;100009.40;;;12.10
70831;BMP180;58451;51.550;7.208;2023-11-19T03:16:39;100004.80;;;12.10
70831;BMP180;58451;51.550;7.208;2023-11-19T03:18:11;100009.20;;;12.10
70831;BMP180;58451;51.550;7.208;2023-11-19T03:19:42;100012.40;;;12.10
70831;BMP180;58451;51.550;7.208;2023-11-19T03:21:14;100016.40;;;12.10
70831;BMP180;58451;51.550;7.208;2023-11-19T03:22:46;100012.20;;;12.10
70831;BMP180;58451;51.550;7.208;2023-11-19T03:24:18;100008.80;;;12.10
70831;BMP180;58451;51.550;7.208;2023-11-19T03:25:50;99998.80;;;12.10
70831;BMP180;58451;51.550;7.208;2023-11-19T03:27:22;99999.20;;;12.10
70831;BMP180;58451;51.550;7.208;2023-11-19T03:28:54;99993.40;;;12.10
70831;BMP180;58451;51.550;7.208;2023-11-19T03:30:26;99992.20;;;12.10
70831;BMP180;58451;51.550;7.208;2023-11-19T03:32:03;99989.00;;;12.10
70831;BMP180;58451;51.550;7.208;2023-11-19T03:33:34;99990.20;;;12.10
70831;BMP180;58451;51.550;7.208;2023-11-19T03:35:07;100004.80;;;12.10
70831;BMP180;58451;51.550;7.208;2023-11-19T03:36:43;100011.20;;;12.10
70831;BMP180;58451;51.550;7.208;2023-11-19T03:38:15;100016.20;;;12.12
70831;BMP180;58451;51.550;7.208;2023-11-19T03:39:47;100027.20;;;12.10
70831;BMP180;58451;51.550;7.208;2023-11-19T03:41:18;100012.40;;;12.14
70831;BMP180;58451;51.550;7.208;2023-11-19T03:42:51;100022.80;;;12.20
70831;BMP180;58451;51.550;7.208;2023-11-19T03:44:22;100026.60;;;12.20
70831;BMP180;58451;51.550;7.208;2023-11-19T03:45:55;100012.00;;;12.20
70831;BMP180;58451;51.550;7.208;2023-11-19T03:47:27;100014.00;;;12.18
70831;BMP180;58451;51.550;7.208;2023-11-19T03:48:59;100010.00;;;12.10
70831;BMP180;58451;51.550;7.208;2023-11-19T03:50:31;100004.60;;;12.10
70831;BMP180;58451;51.550;7.208;2023-11-19T03:52:03;100013.40;;;12.06
70831;BMP180;58451;51.550;7.208;2023-11-19T03:53:37;100011.60;;;12.00
70831;BMP180;58451;51.550;7.208;2023-11-19T03:55:09;100014.00;;;11.98
70831;BMP180;58451;51.550;7.208;2023-11-19T03:56:41;100012.80;;;11.90
70831;BMP180;58451;51.550;7.208;2023-11-19T03:58:13;100018.60;;;11.90
70831;BMP180;58451;51.550;7.208;2023-11-19T03:59:45;100020.40;;;11.90
70831;BMP180;58451;51.550;7.208;2023-11-19T04:01:17;100021.20;;;11.90
70831;BMP180;58451;51.550;7.208;2023-11-19T04:02:50;100017.20;;;11.90
70831;BMP180;58451;51.550;7.208;2023-11-19T04:04:22;100023.60;;;11.90
70831;BMP180;58451;51.550;7.208;2023-11-19T04:05:54;100028.20;;;11.90
70831;BMP180;58451;51.550;7.208;2023-11-19T04:07:25;100022.60;;;11.90
70831;BMP180;58451;51.550;7.208;2023-11-19T04:08:57;100017.40;;;11.90
70831;BMP180;58451;51.550;7.208;2023-11-19T04:10:29;100024.00;;;11.90
70831;BMP180;58451;51.550;7.208;2023-11-19T04:12:01;100015.00;;;11.90
70831;BMP180;58451;51.550;7.208;2023-11-19T04:13:33;100020.20;;;11.90
70831;BMP180;58451;51.550;7.208;2023-11-19T04:15:06;100023.80;;;11.90
70831;BMP180;58451;51.550;7.208;2023-11-19T04:16:39;100029.60;;;11.90
70831;BMP180;58451;51.550;7.208;2023-11-19T04:18:11;100024.40;;;11.90
70831;BMP180;58451;51.550;7.208;2023-11-19T04:19:43;100022.60;;;11.90
70831;BMP180;58451;51.550;7.208;2023-11-19T04:21:15;100019.20;;;11.82
70831;BMP180;58451;51.550;7.208;2023-11-19T04:22:50;100025.00;;;11.80
70831;BMP180;58451;51.550;7.208;2023-11-19T04:24:22;100027.80;;;11.80
70831;BMP180;58451;51.550;7.208;2023-11-19T04:25:54;100027.80;;;11.80
70831;BMP180;58451;51.550;7.208;2023-11-19T04:27:42;100020.80;;;11.80
70831;BMP180;58451;51.550;7.208;2023-11-19T04:29:16;100023.60;;;11.78
70831;BMP180;58451;51.550;7.208;2023-11-19T04:30:51;100026.20;;;11.76
70831;BMP180;58451;51.550;7.208;2023-11-19T04:32:23;100033.60;;;11.70
70831;BMP180;58451;51.550;7.208;2023-11-19T04:33:57;100033.60;;;11.70
70831;BMP180;58451;51.550;7.208;2023-11-19T04:35:29;100040.40;;;11.70
70831;BMP180;58451;51.550;7.208;2023-11-19T04:37:01;100037.60;;;11.70
70831;BMP180;58451;51.550;7.208;2023-11-19T04:38:44;100038.60;;;11.70
70831;BMP180;58451;51.550;7.208;2023-11-19T04:40:16;100041.20;;;11.70
70831;BMP180;58451;51.550;7.208;2023-11-19T04:41:51;100042.00;;;11.60
70831;BMP180;58451;51.550;7.208;2023-11-19T04:43:26;100038.20;;;11.60
70831;BMP180;58451;51.550;7.208;2023-11-19T04:44:58;100037.00;;;11.60
70831;BMP180;58451;51.550;7.208;2023-11-19T04:46:30;100043.60;;;11.60
70831;BMP180;58451;51.550;7.208;2023-11-19T04:48:02;100047.80;;;11.60
70831;BMP180;58451;51.550;7.208;2023-11-19T04:49:34;100046.40;;;11.50
70831;BMP180;58451;51.550;7.208;2023-11-19T04:51:06;100038.40;;;11.54
70831;BMP180;58451;51.550;7.208;2023-11-19T04:52:38;100036.80;;;11.58
70831;BMP180;58451;51.550;7.208;2023-11-19T04:54:16;100035.40;;;11.50
70831;BMP180;58451;51.550;7.208;2023-11-19T04:55:48;100035.80;;;11.50
70831;BMP180;58451;51.550;7.208;2023-11-19T04:57:20;100038.20;;;11.50
70831;BMP180;58451;51.550;7.208;2023-11-19T04:58:52;100047.00;;;11.50
70831;BMP180;58451;51.550;7.208;2023-11-19T05:00:24;100044.00;;;11.50
70831;BMP180;58451;51.550;7.208;2023-11-19T05:01:56;100037.20;;;11.50
70831;BMP180;58451;51.550;7.208;2023-11-19T05:03:27;100050.60;;;11.50
70831;BMP180;58451;51.550;7.208;2023-11-19T05:05:01;100045.00;;;11.50
70831;BMP180;58451;51.550;7.208;2023-11-19T05:06:35;100047.00;;;11.50
70831;BMP180;58451;51.550;7.208;2023-11-19T05:08:07;100045.20;;;11.50
70831;BMP180;58451;51.550;7.208;2023-11-19T05:09:39;100046.60;;;11.50
70831;BMP180;58451;51.550;7.208;2023-11-19T05:11:10;100041.60;;;11.50
70831;BMP180;58451;51.550;7.208;2023-11-19T05:12:43;100059.60;;;11.50
70831;BMP180;58451;51.550;7.208;2023-11-19T05:14:15;100060.40;;;11.50
70831;BMP180;58451;51.550;7.208;2023-11-19T05:15:48;100052.20;;;11.50
70831;BMP180;58451;51.550;7.208;2023-11-19T05:25:40;100054.20;;;11.52
70831;BMP180;58451;51.550;7.208;2023-11-19T05:27:11;100058.60;;;11.60
70831;BMP180;58451;51.550;7.208;2023-11-19T05:28:45;100060.60;;;11.60
70831;BMP180;58451;51.550;7.208;2023-11-19T05:30:17;100048.80;;;11.62
70831;BMP180;58451;51.550;7.208;2023-11-19T05:31:49;100060.40;;;11.70
70831;BMP180;58451;51.550;7.208;2023-11-19T05:33:21;100059.20;;;11.70
70831;BMP180;58451;51.550;7.208;2023-11-19T05:34:53;100053.60;;;11.70
70831;BMP180;58451;51.550;7.208;2023-11-19T05:36:25;100054.00;;;11.70
70831;BMP180;58451;51.550;7.208;2023-11-19T05:37:57;100046.80;;;11.72
70831;BMP180;58451;51.550;7.208;2023-11-19T05:39:29;100047.20;;;11.70
70831;BMP180;58451;51.550;7.208;2023-11-19T05:41:01;100044.60;;;11.72
70831;BMP180;58451;51.550;7.208;2023-11-19T05:42:33;100036.80;;;11.72
70831;BMP180;58451;51.550;7.208;2023-11-19T05:44:05;100037.60;;;11.80
70831;BMP180;58451;51.550;7.208;2023-11-19T05:45:38;100036.40;;;11.80
70831;BMP180;58451;51.550;7.208;2023-11-19T05:47:10;100049.20;;;11.80
70831;BMP180;58451;51.550;7.208;2023-11-19T05:48:42;100063.60;;;11.80
70831;BMP180;58451;51.550;7.208;2023-11-19T05:50:14;100056.40;;;11.80
70831;BMP180;58451;51.550;7.208;2023-11-19T05:51:46;100050.60;;;11.80
70831;BMP180;58451;51.550;7.208;2023-11-19T05:53:18;100052.40;;;11.78
70831;BMP180;58451;51.550;7.208;2023-11-19T05:54:50;100043.80;;;11.78
70831;BMP180;58451;51.550;7.208;2023-11-19T05:56:24;100051.40;;;11.70
70831;BMP180;58451;51.550;7.208;2023-11-19T05:57:56;100049.00;;;11.70
70831;BMP180;58451;51.550;7.208;2023-11-19T05:59:28;100043.80;;;11.70
70831;BMP180;58451;51.550;7.208;2023-11-19T06:01:02;100058.60;;;11.70
70831;BMP180;58451;51.550;7.208;2023-11-19T06:02:35;100057.20;;;11.70
70831;BMP180;58451;51.550;7.208;2023-11-19T06:04:09;100068.40;;;11.70
70831;BMP180;58451;51.550;7.208;2023-11-19T06:05:45;100064.40;;;11.70
70831;BMP180;58451;51.550;7.208;2023-11-19T06:07:17;100056.60;;;11.70
70831;BMP180;58451;51.550;7.208;2023-11-19T06:08:49;100054.00;;;11.70
70831;BMP180;58451;51.550;7.208;2023-11-19T06:10:22;100057.80;;;11.64
70831;BMP180;58451;51.550;7.208;2023-11-19T06:11:56;100052.00;;;11.62
70831;BMP180;58451;51.550;7.208;2023-11-19T06:13:29;100055.60;;;11.62
70831;BMP180;58451;51.550;7.208;2023-11-19T06:15:05;100054.80;;;11.64
70831;BMP180;58451;51.550;7.208;2023-11-19T06:16:37;100055.20;;;11.62
70831;BMP180;58451;51.550;7.208;2023-11-19T06:18:12;100056.40;;;11.66
70831;BMP180;58451;51.550;7.208;2023-11-19T06:19:44;100059.80;;;11.60
70831;BMP180;58451;51.550;7.208;2023-11-19T06:21:16;100051.60;;;11.64
70831;BMP180;58451;51.550;7.208;2023-11-19T06:22:48;100060.40;;;11.66
70831;BMP180;58451;51.550;7.208;2023-11-19T06:24:20;100061.40;;;11.70
70831;BMP180;58451;51.550;7.208;2023-11-19T06:25:52;100061.40;;;11.70
70831;BMP180;58451;51.550;7.208;2023-11-19T06:27:24;100064.20;;;11.70
70831;BMP180;58451;51.550;7.208;2023-11-19T06:28:56;100058.40;;;11.60
70831;BMP180;58451;51.550;7.208;2023-11-19T06:30:27;100064.80;;;11.60
70831;BMP180;58451;51.550;7.208;2023-11-19T06:32:01;100064.80;;;11.60
70831;BMP180;58451;51.550;7.208;2023-11-19T06:33:46;100066.40;;;11.60
70831;BMP180;58451;51.550;7.208;2023-11-19T06:35:18;100072.00;;;11.60
70831;BMP180;58451;51.550;7.208;2023-11-19T06:36:50;100073.20;;;11.60
70831;BMP180;58451;51.550;7.208;2023-11-19T06:38:21;100064.00;;;11.54
70831;BMP180;58451;51.550;7.208;2023-11-19T06:39:53;100066.00;;;11.50
70831;BMP180;58451;51.550;7.208;2023-11-19T06:41:25;100063.00;;;11.50
70831;BMP180;58451;51.550;7.208;2023-11-19T06:42:57;100062.00;;;11.50
70831;BMP180;58451;51.550;7.208;2023-11-19T06:44:29;100059.40;;;11.50
70831;BMP180;58451;51.550;7.208;2023-11-19T06:46:01;100060.40;;;11.50
70831;BMP180;58451;51.550;7.208;2023-11-19T06:47:33;100065.40;;;11.50
70831;BMP180;58451;51.550;7.208;2023-11-19T06:49:05;100066.00;;;11.50
70831;BMP180;58451;51.550;7.208;2023-11-19T06:50:39;100068.00;;;11.50
70831;BMP180;58451;51.550;7.208;2023-11-19T06:52:11;100068.60;;;11.50
70831;BMP180;58451;51.550;7.208;2023-11-19T06:53:43;100072.80;;;11.50
70831;BMP180;58451;51.550;7.208;2023-11-19T06:55:16;100080.40;;;11.50
70831;BMP180;58451;51.550;7.208;2023-11-19T06:56:48;100086.00;;;11.50
70831;BMP180;58451;51.550;7.208;2023-11-19T06:58:20;100086.40;;;11.52
70831;BMP180;58451;51.550;7.208;2023-11-19T06:59:52;100090.80;;;11.56
70831;BMP180;58451;51.550;7.208;2023-11-19T07:01:24;100084.80;;;11.58
70831;BMP180;58451;51.550;7.208;2023-11-19T07:02:56;100093.60;;;11.60
70831;BMP180;58451;51.550;7.208;2023-11-19T07:04:28;100100.40;;;11.58
70831;BMP180;58451;51.550;7.208;2023-11-19T07:06:00;100095.60;;;11.60
70831;BMP180;58451;51.550;7.208;2023-11-19T07:07:32;100105.40;;;11.60
70831;BMP180;58451;51.550;7.208;2023-11-19T07:09:08;100096.20;;;11.60
70831;BMP180;58451;51.550;7.208;2023-11-19T07:10:43;100097.00;;;11.60
70831;BMP180;58451;51.550;7.208;2023-11-19T07:12:15;100099.80;;;11.60
70831;BMP180;58451;51.550;7.208;2023-11-19T07:13:47;100101.60;;;11.60
70831;BMP180;58451;51.550;7.208;2023-11-19T07:15:19;100100.80;;;11.60
70831;BMP180;58451;51.550;7.208;2023-11-19T07:16:51;100098.00;;;11.60
70831;BMP180;58451;51.550;7.208;2023-11-19T07:18:22;100098.20;;;11.60
70831;BMP180;58451;51.550;7.208;2023-11-19T07:19:54;100094.40;;;11.60
70831;BMP180;58451;51.550;7.208;2023-11-19T07:21:43;100104.60;;;11.60
70831;BMP180;58451;51.550;7.208;2023-11-19T07:23:21;100108.00;;;11.66
70831;BMP180;58451;51.550;7.208;2023-11-19T07:25:05;100106.20;;;11.60
70831;BMP180;58451;51.550;7.208;2023-11-19T07:26:51;100101.20;;;11.60
70831;BMP180;58451;51.550;7.208;2023-11-19T07:28:33;100109.40;;;11.64
70831;BMP180;58451;51.550;7.208;2023-11-19T07:30:15;100119.40;;;11.70
70831;BMP180;58451;51.550;7.208;2023-11-19T07:31:50;100120.80;;;11.70
70831;BMP180;58451;51.550;7.208;2023-11-19T07:33:22;100122.80;;;11.70
70831;BMP180;58451;51.550;7.208;2023-11-19T07:34:54;100126.80;;;11.70
70831;BMP180;58451;51.550;7.208;2023-11-19T07:36:28;100133.20;;;11.76
70831;BMP180;58451;51.550;7.208;2023-11-19T07:38:00;100131.40;;;11.80
70831;BMP180;58451;51.550;7.208;2023-11-19T07:39:32;100134.00;;;11.80
70831;BMP180;58451;51.550;7.208;2023-11-19T07:41:05;100138.20;;;11.80
70831;BMP180;58451;51.550;7.208;2023-11-19T07:42:38;100137.20;;;11.80
70831;BMP180;58451;51.550;7.208;2023-11-19T07:44:10;100130.00;;;11.80
70831;BMP180;58451;51.550;7.208;2023-11-19T07:45:43;100139.20;;;11.80
70831;BMP180;58451;51.550;7.208;2023-11-19T07:47:18;100136.00;;;11.80
70831;BMP180;58451;51.550;7.208;2023-11-19T07:48:50;100131.80;;;11.80
70831;BMP180;58451;51.550;7.208;2023-11-19T07:50:21;100131.40;;;11.80
70831;BMP180;58451;51.550;7.208;2023-11-19T07:51:53;100138.00;;;11.80
70831;BMP180;58451;51.550;7.208;2023-11-19T07:53:25;100136.80;;;11.80
70831;BMP180;58451;51.550;7.208;2023-11-19T07:54:57;100139.20;;;11.72
70831;BMP180;58451;51.550;7.208;2023-11-19T07:56:29;100145.00;;;11.76
70831;BMP180;58451;51.550;7.208;2023-11-19T07:58:01;100144.80;;;11.70
70831;BMP180;58451;51.550;7.208;2023-11-19T07:59:33;100143.60;;;11.70
70831;BMP180;58451;51.550;7.208;2023-11-19T08:01:05;100144.20;;;11.70
70831;BMP180;58451;51.550;7.208;2023-11-19T08:02:37;100140.80;;;11.70
70831;BMP180;58451;51.550;7.208;2023-11-19T08:04:09;100137.60;;;11.70
70831;BMP180;58451;51.550;7.208;2023-11-19T08:05:41;100139.40;;;11.70
70831;BMP180;58451;51.550;7.208;2023-11-19T08:07:13;100140.80;;;11.70
70831;BMP180;58451;51.550;7.208;2023-11-19T08:08:44;100144.00;;;11.70
70831;BMP180;58451;51.550;7.208;2023-11-19T08:10:16;100149.20;;;11.70
70831;BMP180;58451;51.550;7.208;2023-11-19T08:11:48;100154.00;;;11.70
70831;BMP180;58451;51.550;7.208;2023-11-19T08:13:22;100154.00;;;11.70
70831;BMP180;58451;51.550;7.208;2023-11-19T08:14:53;100165.60;;;11.70
70831;BMP180;58451;51.550;7.208;2023-11-19T08:16:25;100162.80;;;11.76
70831;BMP180;58451;51.550;7.208;2023-11-19T08:17:57;100167.60;;;11.78
70831;BMP180;58451;51.550;7.208;2023-11-19T08:19:29;100174.60;;;11.80
70831;BMP180;58451;51.550;7.208;2023-11-19T08:21:03;100174.80;;;11.80
70831;BMP180;58451;51.550;7.208;2023-11-19T08:22:37;100177.80;;;11.80
70831;BMP180;58451;51.550;7.208;2023-11-19T08:24:09;100171.00;;;11.80
70831;BMP180;58451;51.550;7.208;2023-11-19T08:25:41;100175.40;;;11.90
70831;BMP180;58451;51.550;7.208;2023-11-19T08:27:13;100163.60;;;11.90
70831;BMP180;58451;51.550;7.208;2023-11-19T08:28:45;100171.00;;;11.90
70831;BMP180;58451;51.550;7.208;2023-11-19T08:30:17;100174.00;;;11.90
70831;BMP180;58451;51.550;7.208;2023-11-19T08:31:49;100176.80;;;11.90
70831;BMP180;58451;51.550;7.208;2023-11-19T08:33:20;100174.60;;;11.96
70831;BMP180;58451;51.550;7.208;2023-11-19T08:34:54;100175.20;;;12.00
70831;BMP180;58451;51.550;7.208;2023-11-19T08:36:26;100169.60;;;12.00
70831;BMP180;58451;51.550;7.208;2023-11-19T08:37:59;100173.20;;;12.10
70831;BMP180;58451;51.550;7.208;2023-11-19T08:39:31;100177.80;;;12.10
70831;BMP180;58451;51.550;7.208;2023-11-19T08:41:03;100167.00;;;12.10
70831;BMP180;58451;51.550;7.208;2023-11-19T08:42:35;100176.20;;;12.18
70831;BMP180;58451;51.550;7.208;2023-11-19T08:44:08;100173.80;;;12.20
70831;BMP180;58451;51.550;7.208;2023-11-19T08:45:40;100169.80;;;12.20
70831;BMP180;58451;51.550;7.208;2023-11-19T08:47:11;100181.80;;;12.24
70831;BMP180;58451;51.550;7.208;2023-11-19T08:48:45;100172.80;;;12.20
70831;BMP180;58451;51.550;7.208;2023-11-19T08:50:17;100174.80;;;12.20
70831;BMP180;58451;51.550;7.208;2023-11-19T08:51:49;100180.00;;;12.20
70831;BMP180;58451;51.550;7.208;2023-11-19T08:53:21;100169.00;;;12.10
70831;BMP180;58451;51.550;7.208;2023-11-19T08:54:53;100176.00;;;12.06
70831;BMP180;58451;51.550;7.208;2023-11-19T08:56:25;100180.00;;;12.00
70831;BMP180;58451;51.550;7.208;2023-11-19T08:57:56;100173.60;;;12.04